Tuesday, November 21, 2017, 10:44 AM EST
Back to Local

KMSS, Massena International -richards Fld

Location: Massena, NY, United States Lat: 44.933
Local Time: 10:44 AM EST (15:44 GMT) Lon: -74.85
Time Zone: US/Eastern Elev: 213 ft

Show me the last for .
Show Decoded

2017-11-21 09:53 METAR KMSS 211453Z AUTO 19012KT 10SM CLR 07/M02 A2975 RMK AO2 SLP078 T00671022
                 56019 =
2017-11-21 08:53 METAR KMSS 211353Z AUTO 19010KT 10SM CLR 04/M02 A2976 RMK AO2 SLP082 T00441017 =
2017-11-21 07:53 METAR KMSS 211253Z AUTO 19006KT 10SM CLR M03/M04 A2979 RMK AO2 SLP093 T10281044
                 =
2017-11-21 06:53 METAR KMSS 211153Z AUTO 00000KT 10SM CLR M07/M07 A2980 RMK AO2 SLP099 I1000
                 I6000 T10671072 11022 21083 58019 =
2017-11-21 05:53 METAR KMSS 211053Z AUTO 00000KT 10SM CLR M07/M08 A2982 RMK AO2 SLP107 I1000
                 T10721083 =
2017-11-21 04:53 METAR KMSS 210953Z AUTO 00000KT 9SM CLR M07/M07 A2984 RMK AO2 SLP113 I1000
                 T10671067 =
2017-11-21 03:53 METAR KMSS 210853Z AUTO 05003KT 10SM CLR M05/M05 A2986 RMK AO2 SLP118 I1000
                 I3000 T10501050 58017 =
2017-11-21 02:53 METAR KMSS 210753Z AUTO 07003KT 10SM CLR M04/M04 A2988 RMK AO2 SLP125 T10391039
                 =
2017-11-21 01:53 METAR KMSS 210653Z AUTO 08004KT 10SM BKN042 M03/M04 A2989 RMK AO2 SLP130
                 T10281039 =
2017-11-21 00:53 METAR KMSS 210553Z AUTO 07004KT 10SM OVC040 M02/M03 A2991 RMK AO2 SLP135
                 T10221033 11022 21050 56024 =
2017-11-21 00:22 METAR KMSS 210522Z AUTO 07006KT 10SM FEW023 OVC041 M02/M04 A2991 RMK AO2
                 T10221039 =
2017-11-20 23:53 METAR KMSS 210453Z AUTO 07005KT 10SM SCT018 OVC027 M03/M04 A2993 RMK AO2 SLP141
                 T10281039 410221072 =
2017-11-20 22:53 METAR KMSS 210353Z AUTO 08003KT 10SM OVC029 M03/M04 A2995 RMK AO2 SLP149
                 T10281039 =
2017-11-20 21:53 METAR KMSS 210253Z AUTO 00000KT 10SM OVC030 M03/M04 A2998 RMK AO2 SLP159
                 T10331044 58008 =
2017-11-20 21:41 METAR KMSS 210241Z AUTO 00000KT 10SM SCT024 OVC030 M03/M04 A2998 RMK AO2
                 T10331044 =
2017-11-20 20:53 METAR KMSS 210153Z AUTO 17003KT 10SM OVC027 M04/M05 A3000 RMK AO2 SLP164
                 T10391050 =
2017-11-20 20:37 METAR KMSS 210137Z AUTO 00000KT 10SM OVC029 M04/M05 A2999 RMK AO2 T10391050 =
2017-11-20 19:53 METAR KMSS 210053Z AUTO 00000KT 10SM BKN037 OVC050 M04/M06 A3001 RMK AO2 SLP168
                 T10441056 =
2017-11-20 18:53 METAR KMSS 202353Z AUTO 18003KT 10SM OVC055 M05/M06 A3000 RMK AO2 SLP167 60000
                 T10501061 11039 21061 51015 =
2017-11-20 17:53 METAR KMSS 202253Z AUTO 18004KT 10SM OVC055 M06/M07 A2999 RMK AO2 SLP165
                 T10561067 =
2017-11-20 16:53 METAR KMSS 202153Z AUTO 21004KT 10SM OVC055 M04/M07 A2998 RMK AO2 SLP160
                 T10441067 =
2017-11-20 15:53 METAR KMSS 202053Z AUTO 24006KT 10SM OVC060 M04/M08 A2996 RMK AO2 SLP152 60000
                 T10391078 53010 =
2017-11-20 14:53 METAR KMSS 201953Z AUTO 24007KT 9SM FEW022 OVC060 M04/M07 A2994 RMK AO2 SNB34E49
                 SLP145 P0000 T10391072 =
2017-11-20 13:53 METAR KMSS 201853Z AUTO 27009KT 10SM SCT020 OVC055 M04/M07 A2993 RMK AO2 SLP142
                 T10391072 =
2017-11-20 13:51 METAR KMSS 201851Z AUTO 26006KT 10SM SCT020 OVC055 M04/M08 A2993 RMK AO2 =
2017-11-20 13:05 METAR KMSS 201805Z AUTO 24006KT 10SM SCT019 BKN024 OVC060 M04/M07 A2992 RMK AO2
                 T10441072 =
2017-11-20 12:53 METAR KMSS 201753Z AUTO 25006KT 10SM FEW018 BKN034 OVC060 M04/M07 A2992 RMK AO2
                 SNE46 SLP139 P0000 60000 T10441072 11044 21067 58003 =
2017-11-20 12:36 METAR KMSS 201736Z AUTO 25005KT 6SM -SN BR SCT030 BKN042 OVC060 M05/M07 A2992
                 RMK AO2 P0000 T10501072 =
2017-11-20 12:16 METAR KMSS 201716Z AUTO 22008KT 3SM -SN BR BKN023 OVC040 M05/M07 A2992 RMK AO2
                 P0000 T10501067 =
2017-11-20 12:08 METAR KMSS 201708Z AUTO 23006KT 1 3/4SM -SN BR OVC021 M06/M07 A2993 RMK AO2
                 P0000 T10561072 =
2017-11-20 12:00 METAR KMSS 201700Z AUTO 24007KT 1 1/4SM -SN BR OVC021 M06/M07 A2993 RMK AO2
                 P0000 T10561072 =
2017-11-20 11:53 METAR KMSS 201653Z AUTO 25006KT 1 1/2SM -SN BR BKN019 OVC027 M06/M07 A2993 RMK
                 AO2 SLP143 P0000 T10561072 =
2017-11-20 11:44 METAR KMSS 201644Z AUTO 24007KT 2SM -SN BR BKN026 OVC033 M06/M08 A2993 RMK AO2
                 P0000 T10561078 =
2017-11-20 11:36 METAR KMSS 201636Z AUTO 26008KT 3SM -SN BR BKN026 OVC033 M06/M08 A2993 RMK AO2
                 P0000 T10561078 =
2017-11-20 11:09 METAR KMSS 201609Z AUTO 26009KT 2 1/2SM -SN BR BKN022 OVC032 M06/M08 A2993 RMK
                 AO2 P0000 T10561078 =
2017-11-20 11:02 METAR KMSS 201602Z AUTO 26008KT 1 3/4SM -SN BR BKN020 OVC034 M06/M08 A2994 RMK
                 AO2 P0000 T10561078 =
2017-11-20 10:53 METAR KMSS 201553Z AUTO 27010KT 1 1/4SM -SN BR BKN020 BKN024 OVC034 M06/M08
                 A2994 RMK AO2 SLP145 P0000 T10561078 =
2017-11-20 10:49 METAR KMSS 201549Z AUTO 27009KT 1 1/4SM -SN BR BKN020 BKN024 OVC034 M06/M08
                 A2994 RMK AO2 P0000 =

Support USWX by starting your Amazon purchase here.